Time,TemperatureF,DewpointF,PressureIn,WindDirection,WindDirectionDegrees,WindSpeedMPH,WindSpeedGustMPH,Humidity,HourlyPrecipIn,Conditions,Clouds,dailyrainin,SoftwareType,DateUTC
2013-05-02 00:03:00,70.0,55.0,30.14,ENE,78,0.0,0.0,59,0.00,,,0.00,,2013-05-02 04:03:00,
2013-05-02 00:12:00,70.0,55.0,30.14,ENE,78,0.0,0.0,60,0.00,,,0.00,,2013-05-02 04:12:00,
2013-05-02 00:23:00,70.0,55.0,30.14,ENE,78,0.0,0.0,60,0.00,,,0.00,,2013-05-02 04:23:00,
2013-05-02 00:33:00,69.0,56.0,30.14,ENE,78,0.0,0.0,63,0.00,,,0.00,,2013-05-02 04:33:00,
2013-05-02 00:42:00,69.0,56.0,30.14,ENE,78,0.0,0.0,63,0.00,,,0.00,,2013-05-02 04:42:00,
2013-05-02 00:52:00,69.0,56.0,30.14,ENE,58,0.0,0.0,63,0.00,,,0.00,,2013-05-02 04:52:00,
2013-05-02 01:02:00,68.0,55.0,30.14,ENE,70,2.0,5.0,64,0.00,,,0.00,,2013-05-02 05:02:00,
2013-05-02 01:12:00,68.0,55.0,30.14,ENE,70,2.0,5.0,64,0.00,,,0.00,,2013-05-02 05:12:00,
2013-05-02 01:22:00,68.0,55.0,30.14,East,79,2.0,3.0,64,0.00,,,0.00,,2013-05-02 05:22:00,
2013-05-02 01:32:00,68.0,56.0,30.14,East,82,2.0,5.0,65,0.00,,,0.00,,2013-05-02 05:32:00,
2013-05-02 01:42:00,68.0,56.0,30.14,East,82,2.0,5.0,65,0.00,,,0.00,,2013-05-02 05:42:00,
2013-05-02 01:52:00,68.0,55.0,30.14,East,85,2.0,6.0,64,0.00,,,0.00,,2013-05-02 05:52:00,
2013-05-02 02:01:00,68.0,56.0,30.14,East,83,3.0,5.0,65,0.00,,,0.00,,2013-05-02 06:01:00,
2013-05-02 02:12:00,68.0,56.0,30.14,East,83,3.0,5.0,65,0.00,,,0.00,,2013-05-02 06:12:00,
2013-05-02 02:21:00,68.0,55.0,30.14,East,94,3.0,6.0,64,0.00,,,0.00,,2013-05-02 06:21:00,
2013-05-02 02:32:00,68.0,55.0,30.14,East,93,1.0,6.0,64,0.00,,,0.00,,2013-05-02 06:32:00,
2013-05-02 02:42:00,68.0,55.0,30.14,East,93,1.0,6.0,64,0.00,,,0.00,,2013-05-02 06:42:00,
2013-05-02 02:52:00,68.0,55.0,30.14,ESE,117,3.0,7.0,63,0.00,,,0.00,,2013-05-02 06:52:00,
2013-05-02 03:02:00,68.0,55.0,30.14,SE,136,1.0,2.0,63,0.00,,,0.00,,2013-05-02 07:02:00,
2013-05-02 03:11:00,68.0,55.0,30.14,SE,136,1.0,2.0,63,0.00,,,0.00,,2013-05-02 07:11:00,
2013-05-02 03:21:00,68.0,55.0,30.13,East,101,3.0,7.0,63,0.00,,,0.00,,2013-05-02 07:21:00,
2013-05-02 03:32:00,67.0,54.0,30.13,ESE,106,1.0,6.0,64,0.00,,,0.00,,2013-05-02 07:32:00,
2013-05-02 03:42:00,67.0,55.0,30.14,ENE,65,0.0,5.0,65,0.00,,,0.00,,2013-05-02 07:42:00,
2013-05-02 03:52:00,67.0,55.0,30.14,ENE,65,0.0,5.0,65,0.00,,,0.00,,2013-05-02 07:52:00,
2013-05-02 04:02:00,66.0,54.0,30.14,East,90,0.0,0.0,66,0.00,,,0.00,,2013-05-02 08:02:00,
2013-05-02 04:11:00,66.0,54.0,30.14,ESE,104,0.0,0.0,66,0.00,,,0.00,,2013-05-02 08:11:00,
2013-05-02 04:22:00,66.0,54.0,30.14,ESE,104,0.0,0.0,66,0.00,,,0.00,,2013-05-02 08:22:00,
2013-05-02 04:32:00,66.0,55.0,30.14,ESE,104,0.0,0.0,67,0.00,,,0.00,,2013-05-02 08:32:00,
2013-05-02 04:42:00,66.0,55.0,30.14,ESE,104,0.0,0.0,67,0.00,,,0.00,,2013-05-02 08:42:00,
2013-05-02 04:52:00,65.0,54.0,30.14,SE,126,0.0,0.0,68,0.00,,,0.00,,2013-05-02 08:52:00,
2013-05-02 05:02:00,65.0,54.0,30.14,ESE,121,0.0,0.0,68,0.00,,,0.00,,2013-05-02 09:02:00,
2013-05-02 05:12:00,65.0,54.0,30.14,ESE,121,0.0,0.0,68,0.00,,,0.00,,2013-05-02 09:12:00,
2013-05-02 05:21:00,64.0,54.0,30.14,SE,126,0.0,0.0,70,0.00,,,0.00,,2013-05-02 09:21:00,
2013-05-02 05:32:00,64.0,54.0,30.14,SE,124,0.0,0.0,69,0.00,,,0.00,,2013-05-02 09:32:00,
2013-05-02 05:42:00,64.0,54.0,30.14,SE,124,0.0,0.0,69,0.00,,,0.00,,2013-05-02 09:42:00,
2013-05-02 05:52:00,64.0,54.0,30.14,SE,132,1.0,3.0,70,0.00,,,0.00,,2013-05-02 09:52:00,
2013-05-02 06:03:00,64.0,54.0,30.14,ESE,109,2.0,3.0,70,0.00,,,0.00,,2013-05-02 10:03:00,
2013-05-02 06:12:00,64.0,54.0,30.14,ESE,109,2.0,3.0,70,0.00,,,0.00,,2013-05-02 10:12:00,
2013-05-02 06:22:00,63.0,53.0,30.14,East,92,1.0,2.0,71,0.00,,,0.00,,2013-05-02 10:22:00,
2013-05-02 06:33:00,63.0,54.0,30.15,East,93,0.0,0.0,73,0.00,,,0.00,,2013-05-02 10:33:00,
2013-05-02 06:42:00,63.0,54.0,30.15,East,93,0.0,0.0,73,0.00,,,0.00,,2013-05-02 10:42:00,
2013-05-02 06:53:00,62.0,54.0,30.15,ESE,102,2.0,2.0,74,0.00,,,0.00,,2013-05-02 10:53:00,
2013-05-02 07:02:00,62.0,54.0,30.16,ESE,105,3.0,6.0,74,0.00,,,0.00,,2013-05-02 11:02:00,
2013-05-02 07:12:00,62.0,54.0,30.16,ESE,105,3.0,6.0,74,0.00,,,0.00,,2013-05-02 11:12:00,
2013-05-02 07:22:00,62.0,54.0,30.16,ESE,102,2.0,5.0,75,0.00,,,0.00,,2013-05-02 11:22:00,
2013-05-02 07:32:00,61.0,53.0,30.16,East,95,0.0,0.0,75,0.00,,,0.00,,2013-05-02 11:32:00,
2013-05-02 07:42:00,61.0,53.0,30.16,East,95,0.0,0.0,75,0.00,,,0.00,,2013-05-02 11:42:00,
2013-05-02 07:52:00,61.0,53.0,30.16,ESE,113,0.0,0.0,75,0.00,,,0.00,,2013-05-02 11:52:00,
2013-05-02 08:01:00,62.0,54.0,30.17,East,97,1.0,1.0,75,0.00,,,0.00,,2013-05-02 12:01:00,
2013-05-02 08:11:00,62.0,54.0,30.17,East,97,1.0,1.0,75,0.00,,,0.00,,2013-05-02 12:11:00,
2013-05-02 08:21:00,62.0,54.0,30.17,East,97,0.0,0.0,74,0.00,,,0.00,,2013-05-02 12:21:00,
2013-05-02 08:32:00,62.0,54.0,30.18,ENE,77,2.0,5.0,74,0.00,,,0.00,,2013-05-02 12:32:00,
2013-05-02 08:42:00,62.0,54.0,30.18,ENE,77,2.0,5.0,74,0.00,,,0.00,,2013-05-02 12:42:00,
2013-05-02 08:52:00,63.0,54.0,30.18,ESE,103,3.0,6.0,72,0.00,,,0.00,,2013-05-02 12:52:00,
2013-05-02 09:01:00,64.0,54.0,30.18,SE,130,6.0,7.0,69,0.00,,,0.00,,2013-05-02 13:01:00,
2013-05-02 09:11:00,64.0,54.0,30.18,SE,130,6.0,7.0,69,0.00,,,0.00,,2013-05-02 13:11:00,
2013-05-02 09:21:00,65.0,55.0,30.19,SE,134,2.0,8.0,69,0.00,,,0.00,,2013-05-02 13:21:00,
2013-05-02 09:32:00,66.0,54.0,30.18,SE,139,5.0,7.0,66,0.00,,,0.00,,2013-05-02 13:32:00,
2013-05-02 09:42:00,66.0,54.0,30.18,SE,139,5.0,7.0,66,0.00,,,0.00,,2013-05-02 13:42:00,
2013-05-02 09:52:00,67.0,54.0,30.19,SE,126,3.0,8.0,64,0.00,,,0.00,,2013-05-02 13:52:00,
2013-05-02 10:02:00,67.0,54.0,30.19,SE,146,3.0,6.0,63,0.00,,,0.00,,2013-05-02 14:02:00,
2013-05-02 10:11:00,67.0,54.0,30.19,SE,146,3.0,6.0,63,0.00,,,0.00,,2013-05-02 14:11:00,
2013-05-02 10:22:00,67.0,54.0,30.19,East,95,1.0,3.0,64,0.00,,,0.00,,2013-05-02 14:22:00,
2013-05-02 10:32:00,68.0,54.0,30.19,South,175,5.0,10.0,60,0.00,,,0.00,,2013-05-02 14:32:00,
2013-05-02 10:42:00,68.0,54.0,30.19,South,175,5.0,10.0,60,0.00,,,0.00,,2013-05-02 14:42:00,
2013-05-02 10:52:00,69.0,54.0,30.19,SSE,148,2.0,2.0,58,0.00,,,0.00,,2013-05-02 14:52:00,
2013-05-02 11:02:00,68.0,53.0,30.18,SSE,163,5.0,6.0,58,0.00,,,0.00,,2013-05-02 15:02:00,
2013-05-02 11:12:00,68.0,53.0,30.18,SSE,163,5.0,6.0,58,0.00,,,0.00,,2013-05-02 15:12:00,
2013-05-02 11:22:00,69.0,54.0,30.18,SSE,159,5.0,7.0,58,0.00,,,0.00,,2013-05-02 15:22:00,
2013-05-02 11:33:00,69.0,54.0,30.18,SSW,203,3.0,6.0,59,0.00,,,0.00,,2013-05-02 15:33:00,
2013-05-02 11:43:00,69.0,54.0,30.18,SSW,203,3.0,6.0,59,0.00,,,0.00,,2013-05-02 15:43:00,
2013-05-02 12:03:00,70.0,54.0,30.18,SSE,166,3.0,6.0,57,0.00,,,0.00,,2013-05-02 16:03:00,
2013-05-02 12:13:00,70.0,54.0,30.18,SSE,166,3.0,6.0,57,0.00,,,0.00,,2013-05-02 16:13:00,
2013-05-02 12:22:00,70.0,55.0,30.17,SSW,206,3.0,6.0,60,0.00,,,0.00,,2013-05-02 16:22:00,
2013-05-02 12:32:00,71.0,54.0,30.17,SSE,155,3.0,7.0,56,0.00,,,0.00,,2013-05-02 16:32:00,
2013-05-02 12:43:00,71.0,54.0,30.17,SE,134,3.0,7.0,55,0.00,,,0.00,,2013-05-02 16:43:00,
2013-05-02 12:52:00,71.0,54.0,30.17,SE,134,3.0,7.0,55,0.00,,,0.00,,2013-05-02 16:52:00,
2013-05-02 13:02:00,71.0,54.0,30.17,South,179,3.0,7.0,54,0.00,,,0.00,,2013-05-02 17:02:00,
2013-05-02 13:12:00,72.0,55.0,30.16,SW,218,2.0,5.0,56,0.00,,,0.00,,2013-05-02 17:12:00,
2013-05-02 13:22:00,72.0,55.0,30.16,SW,218,2.0,5.0,56,0.00,,,0.00,,2013-05-02 17:22:00,
2013-05-02 13:32:00,72.0,54.0,30.16,East,94,3.0,5.0,53,0.00,,,0.00,,2013-05-02 17:32:00,
2013-05-02 13:42:00,72.0,54.0,30.16,East,94,3.0,5.0,53,0.00,,,0.00,,2013-05-02 17:42:00,
2013-05-02 13:52:00,72.0,53.0,30.15,SE,146,3.0,7.0,52,0.00,,,0.00,,2013-05-02 17:52:00,
2013-05-02 14:01:00,73.0,54.0,30.15,East,95,6.0,7.0,52,0.00,,,0.00,,2013-05-02 18:01:00,
2013-05-02 14:11:00,73.0,54.0,30.15,East,95,6.0,7.0,52,0.00,,,0.00,,2013-05-02 18:11:00,
2013-05-02 14:22:00,74.0,52.0,30.14,SSE,155,3.0,6.0,46,0.00,,,0.00,,2013-05-02 18:22:00,
2013-05-02 14:32:00,74.0,52.0,30.14,ENE,61,2.0,7.0,46,0.00,,,0.00,,2013-05-02 18:32:00,
2013-05-02 14:42:00,74.0,52.0,30.14,ENE,61,2.0,7.0,46,0.00,,,0.00,,2013-05-02 18:42:00,
2013-05-02 14:52:00,74.0,51.0,30.14,SSW,207,2.0,2.0,45,0.00,,,0.00,,2013-05-02 18:52:00,
2013-05-02 15:01:00,75.0,53.0,30.14,East,88,1.0,0.0,47,0.00,,,0.00,,2013-05-02 19:01:00,
2013-05-02 15:11:00,75.0,53.0,30.14,East,88,1.0,0.0,47,0.00,,,0.00,,2013-05-02 19:11:00,
2013-05-02 15:22:00,75.0,52.0,30.14,East,82,5.0,6.0,45,0.00,,,0.00,,2013-05-02 19:22:00,
2013-05-02 15:32:00,75.0,54.0,30.13,East,100,1.0,2.0,48,0.00,,,0.00,,2013-05-02 19:32:00,
2013-05-02 15:42:00,75.0,54.0,30.13,East,100,1.0,2.0,48,0.00,,,0.00,,2013-05-02 19:42:00,
2013-05-02 15:52:00,75.0,53.0,30.13,SE,140,5.0,7.0,46,0.00,,,0.00,,2013-05-02 19:52:00,
2013-05-02 16:02:00,75.0,53.0,30.12,ESE,120,3.0,6.0,47,0.00,,,0.00,,2013-05-02 20:02:00,
2013-05-02 16:11:00,75.0,53.0,30.12,SE,132,3.0,8.0,46,0.00,,,0.00,,2013-05-02 20:11:00,
2013-05-02 16:22:00,75.0,53.0,30.12,SE,132,3.0,8.0,46,0.00,,,0.00,,2013-05-02 20:22:00,
2013-05-02 16:32:00,75.0,52.0,30.11,ESE,112,5.0,7.0,45,0.00,,,0.00,,2013-05-02 20:32:00,
2013-05-02 16:41:00,75.0,52.0,30.11,ESE,112,5.0,7.0,45,0.00,,,0.00,,2013-05-02 20:41:00,
2013-05-02 16:52:00,75.0,54.0,30.10,ESE,113,3.0,9.0,48,0.00,,,0.00,,2013-05-02 20:52:00,
2013-05-02 17:01:00,74.0,52.0,30.10,SSE,167,5.0,8.0,47,0.00,,,0.00,,2013-05-02 21:01:00,
2013-05-02 17:12:00,74.0,53.0,30.09,ESE,114,1.0,6.0,48,0.00,,,0.00,,2013-05-02 21:12:00,
2013-05-02 17:21:00,74.0,53.0,30.09,ESE,114,1.0,6.0,48,0.00,,,0.00,,2013-05-02 21:21:00,
2013-05-02 17:33:00,74.0,51.0,30.09,SSE,157,2.0,7.0,45,0.00,,,0.00,,2013-05-02 21:33:00,
2013-05-02 17:42:00,74.0,51.0,30.09,SSE,157,2.0,7.0,45,0.00,,,0.00,,2013-05-02 21:42:00,
2013-05-02 17:53:00,75.0,53.0,30.09,East,91,3.0,7.0,46,0.00,,,0.00,,2013-05-02 21:53:00,
2013-05-02 18:03:00,75.0,53.0,30.09,East,89,2.0,7.0,46,0.00,,,0.00,,2013-05-02 22:03:00,
2013-05-02 18:12:00,75.0,53.0,30.09,East,89,2.0,7.0,46,0.00,,,0.00,,2013-05-02 22:12:00,
2013-05-02 18:22:00,74.0,53.0,30.08,SSE,151,2.0,8.0,48,0.00,,,0.00,,2013-05-02 22:22:00,
2013-05-02 18:32:00,75.0,54.0,30.08,ESE,113,1.0,2.0,48,0.00,,,0.00,,2013-05-02 22:32:00,
2013-05-02 18:42:00,75.0,54.0,30.08,ESE,113,1.0,2.0,48,0.00,,,0.00,,2013-05-02 22:42:00,
2013-05-02 18:53:00,74.0,53.0,30.08,SE,140,2.0,5.0,48,0.00,,,0.00,,2013-05-02 22:53:00,
2013-05-02 19:02:00,74.0,53.0,30.07,SSE,159,2.0,5.0,48,0.00,,,0.00,,2013-05-02 23:02:00,
2013-05-02 19:11:00,74.0,53.0,30.07,SSE,159,2.0,5.0,48,0.00,,,0.00,,2013-05-02 23:11:00,
2013-05-02 19:22:00,74.0,54.0,30.07,East,100,1.0,0.0,49,0.00,,,0.00,,2013-05-02 23:22:00,
2013-05-02 19:32:00,74.0,53.0,30.06,SSE,161,3.0,7.0,48,0.00,,,0.00,,2013-05-02 23:32:00,
2013-05-02 19:42:00,74.0,53.0,30.06,SSE,161,3.0,7.0,48,0.00,,,0.00,,2013-05-02 23:42:00,
2013-05-02 19:51:00,73.0,53.0,30.06,SSE,166,1.0,8.0,50,0.00,,,0.00,,2013-05-02 23:51:00,
2013-05-02 20:01:00,73.0,54.0,30.07,SSE,155,1.0,5.0,51,0.00,,,0.00,,2013-05-03 00:01:00,
2013-05-02 20:11:00,73.0,55.0,30.07,South,173,2.0,3.0,53,0.00,,,0.00,,2013-05-03 00:11:00,
2013-05-02 20:21:00,73.0,55.0,30.07,South,173,2.0,3.0,53,0.00,,,0.00,,2013-05-03 00:21:00,
2013-05-02 20:31:00,72.0,55.0,30.08,SSE,150,2.0,2.0,55,0.00,,,0.00,,2013-05-03 00:31:00,
2013-05-02 20:42:00,72.0,55.0,30.08,SSE,150,2.0,2.0,55,0.00,,,0.00,,2013-05-03 00:42:00,
2013-05-02 20:52:00,72.0,55.0,30.08,SSE,158,2.0,5.0,56,0.00,,,0.00,,2013-05-03 00:52:00,
2013-05-02 21:01:00,71.0,55.0,30.08,SE,134,1.0,7.0,57,0.00,,,0.00,,2013-05-03 01:01:00,
2013-05-02 21:11:00,71.0,55.0,30.08,SE,134,1.0,7.0,57,0.00,,,0.00,,2013-05-03 01:11:00,
2013-05-02 21:21:00,70.0,55.0,30.08,ESE,112,0.0,0.0,60,0.00,,,0.00,,2013-05-03 01:21:00,
2013-05-02 21:32:00,70.0,56.0,30.09,SSE,154,1.0,2.0,61,0.00,,,0.00,,2013-05-03 01:32:00,
2013-05-02 21:42:00,70.0,56.0,30.09,SSE,154,1.0,2.0,61,0.00,,,0.00,,2013-05-03 01:42:00,
2013-05-02 21:52:00,69.0,55.0,30.09,SE,124,0.0,2.0,62,0.00,,,0.00,,2013-05-03 01:52:00,
2013-05-02 22:01:00,69.0,56.0,30.09,ESE,117,0.0,0.0,63,0.00,,,0.00,,2013-05-03 02:01:00,
2013-05-02 22:11:00,69.0,56.0,30.09,ESE,117,0.0,0.0,63,0.00,,,0.00,,2013-05-03 02:11:00,
2013-05-02 22:22:00,69.0,56.0,30.09,East,81,0.0,1.0,64,0.00,,,0.00,,2013-05-03 02:22:00,
2013-05-02 22:32:00,68.0,55.0,30.09,ESE,102,0.0,0.0,64,0.00,,,0.00,,2013-05-03 02:32:00,
2013-05-02 22:42:00,68.0,55.0,30.09,ESE,102,0.0,0.0,64,0.00,,,0.00,,2013-05-03 02:42:00,
2013-05-02 22:52:00,68.0,55.0,30.09,ESE,102,0.0,0.0,64,0.00,,,0.00,,2013-05-03 02:52:00,
2013-05-02 23:01:00,68.0,56.0,30.09,ESE,102,0.0,0.0,66,0.00,,,0.00,,2013-05-03 03:01:00,
2013-05-02 23:11:00,68.0,56.0,30.08,ESE,110,0.0,0.0,66,0.00,,,0.00,,2013-05-03 03:11:00,
2013-05-02 23:21:00,68.0,56.0,30.08,ESE,110,0.0,0.0,66,0.00,,,0.00,,2013-05-03 03:21:00,
2013-05-02 23:33:00,67.0,56.0,30.08,East,100,0.0,0.0,68,0.00,,,0.00,,2013-05-03 03:33:00,
2013-05-02 23:42:00,67.0,56.0,30.08,East,100,0.0,0.0,68,0.00,,,0.00,,2013-05-03 03:42:00,
2013-05-02 23:52:00,67.0,56.0,30.07,ESE,104,0.0,0.0,69,0.00,,,0.00,,2013-05-03 03:52:00,